sensor_id;sensor_type;location;lat;lon;timestamp;P1;durP1;ratioP1;P2;durP2;ratioP2
79229;SDS011;68663;49.122;17.544;2023-05-13T00:02:08;2.60;;;2.20;;
79229;SDS011;68663;49.122;17.544;2023-05-13T00:04:33;2.80;;;2.30;;
79229;SDS011;68663;49.122;17.544;2023-05-13T00:06:59;2.75;;;2.20;;
79229;SDS011;68663;49.122;17.544;2023-05-13T00:09:24;3.42;;;2.45;;
79229;SDS011;68663;49.122;17.544;2023-05-13T00:11:50;3.00;;;2.10;;
79229;SDS011;68663;49.122;17.544;2023-05-13T00:14:15;2.33;;;2.07;;
79229;SDS011;68663;49.122;17.544;2023-05-13T00:16:41;2.70;;;2.25;;
79229;SDS011;68663;49.122;17.544;2023-05-13T00:19:07;2.50;;;1.98;;
79229;SDS011;68663;49.122;17.544;2023-05-13T00:21:32;2.65;;;2.20;;
79229;SDS011;68663;49.122;17.544;2023-05-13T00:23:58;2.92;;;2.05;;
79229;SDS011;68663;49.122;17.544;2023-05-13T00:26:23;3.03;;;2.22;;
79229;SDS011;68663;49.122;17.544;2023-05-13T00:28:49;2.60;;;2.08;;
79229;SDS011;68663;49.122;17.544;2023-05-13T00:31:14;3.92;;;2.10;;
79229;SDS011;68663;49.122;17.544;2023-05-13T00:33:40;2.25;;;2.00;;
79229;SDS011;68663;49.122;17.544;2023-05-13T00:36:06;2.80;;;2.30;;
79229;SDS011;68663;49.122;17.544;2023-05-13T00:38:34;2.83;;;2.17;;
79229;SDS011;68663;49.122;17.544;2023-05-13T00:40:59;2.33;;;1.90;;
79229;SDS011;68663;49.122;17.544;2023-05-13T00:43:26;2.70;;;2.10;;
79229;SDS011;68663;49.122;17.544;2023-05-13T00:45:51;2.80;;;2.20;;
79229;SDS011;68663;49.122;17.544;2023-05-13T00:48:17;2.95;;;2.20;;
79229;SDS011;68663;49.122;17.544;2023-05-13T00:50:42;2.78;;;2.22;;
79229;SDS011;68663;49.122;17.544;2023-05-13T00:53:08;3.05;;;2.20;;
79229;SDS011;68663;49.122;17.544;2023-05-13T00:55:39;2.95;;;2.00;;
79229;SDS011;68663;49.122;17.544;2023-05-13T00:58:06;2.45;;;1.92;;
79229;SDS011;68663;49.122;17.544;2023-05-13T01:00:32;3.50;;;1.88;;
79229;SDS011;68663;49.122;17.544;2023-05-13T01:03:09;2.85;;;1.92;;
79229;SDS011;68663;49.122;17.544;2023-05-13T01:11:06;2.90;;;2.15;;
79229;SDS011;68663;49.122;17.544;2023-05-13T01:13:46;2.35;;;1.95;;
79229;SDS011;68663;49.122;17.544;2023-05-13T01:18:48;2.70;;;1.90;;
79229;SDS011;68663;49.122;17.544;2023-05-13T01:21:25;3.03;;;2.10;;
79229;SDS011;68663;49.122;17.544;2023-05-13T01:23:52;2.30;;;2.10;;
79229;SDS011;68663;49.122;17.544;2023-05-13T01:26:17;2.85;;;2.13;;
79229;SDS011;68663;49.122;17.544;2023-05-13T01:28:43;2.40;;;2.00;;
79229;SDS011;68663;49.122;17.544;2023-05-13T01:31:09;2.08;;;1.73;;
79229;SDS011;68663;49.122;17.544;2023-05-13T01:33:36;2.58;;;2.00;;
79229;SDS011;68663;49.122;17.544;2023-05-13T01:36:02;2.85;;;2.30;;
79229;SDS011;68663;49.122;17.544;2023-05-13T01:38:28;2.40;;;1.80;;
79229;SDS011;68663;49.122;17.544;2023-05-13T01:40:55;2.53;;;2.05;;
79229;SDS011;68663;49.122;17.544;2023-05-13T01:43:22;2.42;;;2.00;;
79229;SDS011;68663;49.122;17.544;2023-05-13T01:45:47;2.30;;;2.00;;
79229;SDS011;68663;49.122;17.544;2023-05-13T01:48:13;2.65;;;1.90;;
79229;SDS011;68663;49.122;17.544;2023-05-13T01:50:38;2.20;;;1.80;;
79229;SDS011;68663;49.122;17.544;2023-05-13T01:53:04;2.30;;;1.77;;
79229;SDS011;68663;49.122;17.544;2023-05-13T01:55:29;2.33;;;2.00;;
79229;SDS011;68663;49.122;17.544;2023-05-13T01:57:54;2.53;;;1.83;;
79229;SDS011;68663;49.122;17.544;2023-05-13T02:03:35;2.55;;;1.95;;
79229;SDS011;68663;49.122;17.544;2023-05-13T02:06:01;2.28;;;1.90;;
79229;SDS011;68663;49.122;17.544;2023-05-13T02:08:26;2.00;;;1.60;;
79229;SDS011;68663;49.122;17.544;2023-05-13T02:10:55;2.20;;;1.80;;
79229;SDS011;68663;49.122;17.544;2023-05-13T02:13:21;3.20;;;1.92;;
79229;SDS011;68663;49.122;17.544;2023-05-13T02:15:46;2.35;;;1.90;;
79229;SDS011;68663;49.122;17.544;2023-05-13T02:18:12;4.00;;;2.20;;
79229;SDS011;68663;49.122;17.544;2023-05-13T02:20:37;2.25;;;1.90;;
79229;SDS011;68663;49.122;17.544;2023-05-13T02:23:03;2.08;;;1.67;;
79229;SDS011;68663;49.122;17.544;2023-05-13T02:25:28;2.35;;;2.08;;
79229;SDS011;68663;49.122;17.544;2023-05-13T02:27:54;3.08;;;2.08;;
79229;SDS011;68663;49.122;17.544;2023-05-13T02:30:19;2.42;;;1.80;;
79229;SDS011;68663;49.122;17.544;2023-05-13T02:32:45;2.85;;;1.77;;
79229;SDS011;68663;49.122;17.544;2023-05-13T02:35:11;2.53;;;2.00;;
79229;SDS011;68663;49.122;17.544;2023-05-13T02:37:36;2.77;;;1.80;;
79229;SDS011;68663;49.122;17.544;2023-05-13T02:40:01;2.80;;;2.00;;
79229;SDS011;68663;49.122;17.544;2023-05-13T02:42:27;2.95;;;1.85;;
79229;SDS011;68663;49.122;17.544;2023-05-13T02:44:53;2.58;;;1.90;;
79229;SDS011;68663;49.122;17.544;2023-05-13T02:47:19;2.30;;;1.88;;
79229;SDS011;68663;49.122;17.544;2023-05-13T02:49:44;1.80;;;1.67;;
79229;SDS011;68663;49.122;17.544;2023-05-13T02:52:09;2.85;;;2.10;;
79229;SDS011;68663;49.122;17.544;2023-05-13T02:54:35;2.00;;;1.80;;
79229;SDS011;68663;49.122;17.544;2023-05-13T02:57:00;2.45;;;1.83;;
79229;SDS011;68663;49.122;17.544;2023-05-13T02:59:26;2.30;;;1.70;;
79229;SDS011;68663;49.122;17.544;2023-05-13T03:01:51;2.70;;;1.90;;
79229;SDS011;68663;49.122;17.544;2023-05-13T03:04:17;2.22;;;1.73;;
79229;SDS011;68663;49.122;17.544;2023-05-13T03:06:42;2.30;;;1.90;;
79229;SDS011;68663;49.122;17.544;2023-05-13T03:09:07;2.13;;;1.60;;
79229;SDS011;68663;49.122;17.544;2023-05-13T03:11:33;2.10;;;1.70;;
79229;SDS011;68663;49.122;17.544;2023-05-13T03:13:58;2.00;;;1.55;;
79229;SDS011;68663;49.122;17.544;2023-05-13T03:16:24;3.10;;;1.73;;
79229;SDS011;68663;49.122;17.544;2023-05-13T03:18:49;2.78;;;2.03;;
79229;SDS011;68663;49.122;17.544;2023-05-13T03:21:15;2.73;;;1.90;;
79229;SDS011;68663;49.122;17.544;2023-05-13T03:23:40;2.40;;;1.90;;
79229;SDS011;68663;49.122;17.544;2023-05-13T03:26:06;2.42;;;1.83;;
79229;SDS011;68663;49.122;17.544;2023-05-13T03:28:31;2.03;;;1.83;;
79229;SDS011;68663;49.122;17.544;2023-05-13T03:30:57;2.60;;;1.83;;
79229;SDS011;68663;49.122;17.544;2023-05-13T03:33:22;1.95;;;1.70;;
79229;SDS011;68663;49.122;17.544;2023-05-13T03:35:47;2.08;;;1.65;;
79229;SDS011;68663;49.122;17.544;2023-05-13T03:38:13;2.22;;;1.90;;
79229;SDS011;68663;49.122;17.544;2023-05-13T03:40:39;2.40;;;1.88;;
79229;SDS011;68663;49.122;17.544;2023-05-13T03:43:04;2.90;;;2.00;;
79229;SDS011;68663;49.122;17.544;2023-05-13T03:45:29;1.95;;;1.55;;
79229;SDS011;68663;49.122;17.544;2023-05-13T03:47:55;2.55;;;2.03;;
79229;SDS011;68663;49.122;17.544;2023-05-13T03:50:21;2.03;;;1.60;;
79229;SDS011;68663;49.122;17.544;2023-05-13T03:52:46;2.20;;;1.80;;
79229;SDS011;68663;49.122;17.544;2023-05-13T03:55:12;2.42;;;2.00;;
79229;SDS011;68663;49.122;17.544;2023-05-13T03:57:39;1.88;;;1.52;;
79229;SDS011;68663;49.122;17.544;2023-05-13T04:00:06;2.10;;;1.70;;
79229;SDS011;68663;49.122;17.544;2023-05-13T04:02:32;1.75;;;1.55;;
79229;SDS011;68663;49.122;17.544;2023-05-13T04:04:57;3.87;;;1.93;;
79229;SDS011;68663;49.122;17.544;2023-05-13T04:07:22;2.87;;;2.03;;
79229;SDS011;68663;49.122;17.544;2023-05-13T04:09:48;2.35;;;1.85;;
79229;SDS011;68663;49.122;17.544;2023-05-13T04:12:13;1.70;;;1.52;;
79229;SDS011;68663;49.122;17.544;2023-05-13T04:14:39;2.33;;;1.70;;
79229;SDS011;68663;49.122;17.544;2023-05-13T04:17:05;2.20;;;1.70;;
79229;SDS011;68663;49.122;17.544;2023-05-13T04:19:30;2.10;;;1.60;;
79229;SDS011;68663;49.122;17.544;2023-05-13T04:21:56;1.90;;;1.60;;
79229;SDS011;68663;49.122;17.544;2023-05-13T04:24:21;2.13;;;1.50;;
79229;SDS011;68663;49.122;17.544;2023-05-13T04:26:46;2.40;;;1.93;;
79229;SDS011;68663;49.122;17.544;2023-05-13T04:29:12;2.67;;;1.90;;
79229;SDS011;68663;49.122;17.544;2023-05-13T04:31:37;2.27;;;1.80;;
79229;SDS011;68663;49.122;17.544;2023-05-13T04:34:02;2.63;;;1.90;;
79229;SDS011;68663;49.122;17.544;2023-05-13T04:36:28;1.88;;;1.58;;
79229;SDS011;68663;49.122;17.544;2023-05-13T04:38:53;2.80;;;1.80;;
79229;SDS011;68663;49.122;17.544;2023-05-13T04:41:19;2.58;;;1.90;;
79229;SDS011;68663;49.122;17.544;2023-05-13T04:43:45;1.90;;;1.67;;
79229;SDS011;68663;49.122;17.544;2023-05-13T04:46:10;1.73;;;1.60;;
79229;SDS011;68663;49.122;17.544;2023-05-13T04:48:36;2.20;;;1.77;;
79229;SDS011;68663;49.122;17.544;2023-05-13T04:51:01;2.08;;;1.52;;
79229;SDS011;68663;49.122;17.544;2023-05-13T04:53:27;1.90;;;1.60;;
79229;SDS011;68663;49.122;17.544;2023-05-13T04:55:52;1.73;;;1.57;;
79229;SDS011;68663;49.122;17.544;2023-05-13T04:58:24;1.58;;;1.48;;
79229;SDS011;68663;49.122;17.544;2023-05-13T05:00:50;1.98;;;1.45;;
79229;SDS011;68663;49.122;17.544;2023-05-13T05:03:16;2.20;;;1.70;;
79229;SDS011;68663;49.122;17.544;2023-05-13T05:05:41;1.90;;;1.50;;
79229;SDS011;68663;49.122;17.544;2023-05-13T05:08:06;1.67;;;1.50;;
79229;SDS011;68663;49.122;17.544;2023-05-13T05:10:32;2.13;;;1.60;;
79229;SDS011;68663;49.122;17.544;2023-05-13T05:12:57;1.73;;;1.52;;
79229;SDS011;68663;49.122;17.544;2023-05-13T05:15:23;2.40;;;1.80;;
79229;SDS011;68663;49.122;17.544;2023-05-13T05:17:48;2.05;;;1.60;;
79229;SDS011;68663;49.122;17.544;2023-05-13T05:20:13;1.92;;;1.50;;
79229;SDS011;68663;49.122;17.544;2023-05-13T05:22:39;1.60;;;1.30;;
79229;SDS011;68663;49.122;17.544;2023-05-13T05:25:06;2.28;;;1.73;;
79229;SDS011;68663;49.122;17.544;2023-05-13T05:27:32;1.75;;;1.48;;
79229;SDS011;68663;49.122;17.544;2023-05-13T05:29:57;2.45;;;1.85;;
79229;SDS011;68663;49.122;17.544;2023-05-13T05:32:23;1.80;;;1.60;;
79229;SDS011;68663;49.122;17.544;2023-05-13T05:34:48;2.03;;;1.60;;
79229;SDS011;68663;49.122;17.544;2023-05-13T05:37:14;2.60;;;1.40;;
79229;SDS011;68663;49.122;17.544;2023-05-13T05:39:39;3.70;;;1.77;;
79229;SDS011;68663;49.122;17.544;2023-05-13T05:42:06;3.75;;;1.65;;
79229;SDS011;68663;49.122;17.544;2023-05-13T05:44:31;1.75;;;1.45;;
79229;SDS011;68663;49.122;17.544;2023-05-13T05:46:57;2.13;;;1.58;;
79229;SDS011;68663;49.122;17.544;2023-05-13T05:49:22;3.60;;;2.17;;
79229;SDS011;68663;49.122;17.544;2023-05-13T05:51:48;1.70;;;1.60;;
79229;SDS011;68663;49.122;17.544;2023-05-13T05:54:13;3.17;;;1.45;;
79229;SDS011;68663;49.122;17.544;2023-05-13T05:56:38;4.38;;;1.70;;
79229;SDS011;68663;49.122;17.544;2023-05-13T05:59:04;1.90;;;1.50;;
79229;SDS011;68663;49.122;17.544;2023-05-13T06:01:29;3.85;;;1.60;;
79229;SDS011;68663;49.122;17.544;2023-05-13T06:04:00;2.67;;;1.60;;
79229;SDS011;68663;49.122;17.544;2023-05-13T06:06:26;2.10;;;1.83;;
79229;SDS011;68663;49.122;17.544;2023-05-13T06:08:52;2.20;;;1.42;;
79229;SDS011;68663;49.122;17.544;2023-05-13T06:11:17;1.67;;;1.40;;
79229;SDS011;68663;49.122;17.544;2023-05-13T06:13:42;3.55;;;1.80;;
79229;SDS011;68663;49.122;17.544;2023-05-13T06:16:08;8.98;;;1.90;;
79229;SDS011;68663;49.122;17.544;2023-05-13T06:18:33;2.47;;;1.55;;
79229;SDS011;68663;49.122;17.544;2023-05-13T06:20:59;4.63;;;1.85;;
79229;SDS011;68663;49.122;17.544;2023-05-13T06:23:24;2.63;;;1.63;;
79229;SDS011;68663;49.122;17.544;2023-05-13T06:25:50;3.30;;;1.50;;
79229;SDS011;68663;49.122;17.544;2023-05-13T06:28:15;2.60;;;1.40;;
79229;SDS011;68663;49.122;17.544;2023-05-13T06:30:42;4.68;;;1.98;;
79229;SDS011;68663;49.122;17.544;2023-05-13T06:33:08;2.15;;;1.65;;
79229;SDS011;68663;49.122;17.544;2023-05-13T06:35:34;3.92;;;1.60;;
79229;SDS011;68663;49.122;17.544;2023-05-13T06:38:01;3.22;;;1.60;;
79229;SDS011;68663;49.122;17.544;2023-05-13T06:40:26;3.72;;;1.52;;
79229;SDS011;68663;49.122;17.544;2023-05-13T06:42:51;3.83;;;1.77;;
79229;SDS011;68663;49.122;17.544;2023-05-13T06:45:17;2.88;;;1.38;;
79229;SDS011;68663;49.122;17.544;2023-05-13T06:47:47;2.88;;;1.50;;
79229;SDS011;68663;49.122;17.544;2023-05-13T06:50:14;4.97;;;1.70;;
79229;SDS011;68663;49.122;17.544;2023-05-13T06:52:39;1.80;;;1.50;;
79229;SDS011;68663;49.122;17.544;2023-05-13T06:55:04;2.63;;;1.70;;
79229;SDS011;68663;49.122;17.544;2023-05-13T06:57:30;4.25;;;1.80;;
79229;SDS011;68663;49.122;17.544;2023-05-13T06:59:56;3.50;;;1.60;;
79229;SDS011;68663;49.122;17.544;2023-05-13T07:02:21;4.72;;;1.88;;
79229;SDS011;68663;49.122;17.544;2023-05-13T07:04:46;2.97;;;1.83;;
79229;SDS011;68663;49.122;17.544;2023-05-13T07:07:12;5.28;;;1.88;;
79229;SDS011;68663;49.122;17.544;2023-05-13T07:09:37;6.68;;;2.20;;
79229;SDS011;68663;49.122;17.544;2023-05-13T07:12:03;4.15;;;1.90;;
79229;SDS011;68663;49.122;17.544;2023-05-13T07:14:28;3.55;;;2.08;;
79229;SDS011;68663;49.122;17.544;2023-05-13T07:16:54;3.47;;;1.95;;
79229;SDS011;68663;49.122;17.544;2023-05-13T07:19:19;3.15;;;1.77;;
79229;SDS011;68663;49.122;17.544;2023-05-13T07:21:45;4.00;;;1.90;;
79229;SDS011;68663;49.122;17.544;2023-05-13T07:24:10;6.37;;;2.30;;
79229;SDS011;68663;49.122;17.544;2023-05-13T07:26:35;3.63;;;1.70;;
79229;SDS011;68663;49.122;17.544;2023-05-13T07:29:01;3.67;;;1.85;;
79229;SDS011;68663;49.122;17.544;2023-05-13T07:31:26;4.75;;;1.88;;
79229;SDS011;68663;49.122;17.544;2023-05-13T07:33:52;4.68;;;1.98;;
79229;SDS011;68663;49.122;17.544;2023-05-13T07:36:18;3.45;;;1.85;;
79229;SDS011;68663;49.122;17.544;2023-05-13T07:38:43;6.45;;;2.13;;
79229;SDS011;68663;49.122;17.544;2023-05-13T07:41:09;3.67;;;2.50;;
79229;SDS011;68663;49.122;17.544;2023-05-13T07:43:34;3.53;;;1.80;;
79229;SDS011;68663;49.122;17.544;2023-05-13T07:46:00;5.28;;;1.90;;
79229;SDS011;68663;49.122;17.544;2023-05-13T07:48:27;2.75;;;1.90;;
79229;SDS011;68663;49.122;17.544;2023-05-13T07:50:52;4.68;;;2.10;;
79229;SDS011;68663;49.122;17.544;2023-05-13T07:53:18;4.55;;;2.03;;
79229;SDS011;68663;49.122;17.544;2023-05-13T07:55:43;5.35;;;2.05;;
79229;SDS011;68663;49.122;17.544;2023-05-13T07:58:09;4.95;;;1.80;;
79229;SDS011;68663;49.122;17.544;2023-05-13T08:00:35;3.90;;;1.80;;
79229;SDS011;68663;49.122;17.544;2023-05-13T08:03:01;3.58;;;1.70;;
79229;SDS011;68663;49.122;17.544;2023-05-13T08:05:26;3.63;;;1.80;;
79229;SDS011;68663;49.122;17.544;2023-05-13T08:07:51;3.67;;;1.75;;
79229;SDS011;68663;49.122;17.544;2023-05-13T08:10:17;3.00;;;1.70;;
79229;SDS011;68663;49.122;17.544;2023-05-13T08:12:42;4.63;;;1.80;;
79229;SDS011;68663;49.122;17.544;2023-05-13T08:15:14;6.30;;;1.83;;
79229;SDS011;68663;49.122;17.544;2023-05-13T08:17:41;4.03;;;2.10;;
79229;SDS011;68663;49.122;17.544;2023-05-13T08:22:35;5.50;;;2.42;;
79229;SDS011;68663;49.122;17.544;2023-05-13T08:25:01;12.43;;;2.40;;
79229;SDS011;68663;49.122;17.544;2023-05-13T08:27:27;11.63;;;2.83;;
79229;SDS011;68663;49.122;17.544;2023-05-13T08:29:53;9.35;;;3.15;;
79229;SDS011;68663;49.122;17.544;2023-05-13T08:32:18;9.07;;;2.40;;
79229;SDS011;68663;49.122;17.544;2023-05-13T08:34:43;5.30;;;2.00;;
79229;SDS011;68663;49.122;17.544;2023-05-13T08:37:09;6.45;;;2.20;;
79229;SDS011;68663;49.122;17.544;2023-05-13T08:39:34;13.82;;;3.45;;
79229;SDS011;68663;49.122;17.544;2023-05-13T08:41:59;6.67;;;2.70;;
79229;SDS011;68663;49.122;17.544;2023-05-13T08:44:27;7.78;;;2.50;;
79229;SDS011;68663;49.122;17.544;2023-05-13T08:46:59;9.13;;;2.67;;
79229;SDS011;68663;49.122;17.544;2023-05-13T08:49:31;9.30;;;3.35;;
79229;SDS011;68663;49.122;17.544;2023-05-13T08:51:58;6.30;;;3.30;;
79229;SDS011;68663;49.122;17.544;2023-05-13T08:54:23;6.13;;;2.55;;
79229;SDS011;68663;49.122;17.544;2023-05-13T08:56:49;4.53;;;3.08;;
79229;SDS011;68663;49.122;17.544;2023-05-13T08:59:15;7.60;;;3.45;;
79229;SDS011;68663;49.122;17.544;2023-05-13T09:01:41;5.40;;;3.33;;
79229;SDS011;68663;49.122;17.544;2023-05-13T09:04:08;4.75;;;3.28;;
79229;SDS011;68663;49.122;17.544;2023-05-13T09:06:35;7.03;;;3.47;;
79229;SDS011;68663;49.122;17.544;2023-05-13T09:09:00;3.65;;;3.00;;
79229;SDS011;68663;49.122;17.544;2023-05-13T09:11:27;3.67;;;2.90;;
79229;SDS011;68663;49.122;17.544;2023-05-13T09:13:56;4.20;;;3.15;;
79229;SDS011;68663;49.122;17.544;2023-05-13T09:16:22;5.15;;;3.17;;
79229;SDS011;68663;49.122;17.544;2023-05-13T09:18:49;10.05;;;4.07;;
79229;SDS011;68663;49.122;17.544;2023-05-13T09:21:20;11.40;;;7.00;;
79229;SDS011;68663;49.122;17.544;2023-05-13T09:23:47;30.60;;;26.77;;
79229;SDS011;68663;49.122;17.544;2023-05-13T09:26:25;28.23;;;25.52;;
79229;SDS011;68663;49.122;17.544;2023-05-13T09:29:12;25.77;;;23.23;;
79229;SDS011;68663;49.122;17.544;2023-05-13T09:31:44;22.95;;;20.55;;
79229;SDS011;68663;49.122;17.544;2023-05-13T09:34:11;24.17;;;21.65;;
79229;SDS011;68663;49.122;17.544;2023-05-13T09:36:37;22.08;;;19.70;;
79229;SDS011;68663;49.122;17.544;2023-05-13T09:39:03;21.48;;;19.27;;
79229;SDS011;68663;49.122;17.544;2023-05-13T09:41:29;18.30;;;16.48;;
79229;SDS011;68663;49.122;17.544;2023-05-13T09:43:56;23.40;;;18.73;;
79229;SDS011;68663;49.122;17.544;2023-05-13T09:46:22;23.88;;;17.92;;
79229;SDS011;68663;49.122;17.544;2023-05-13T09:48:49;21.30;;;14.52;;
79229;SDS011;68663;49.122;17.544;2023-05-13T09:51:24;24.42;;;12.63;;
79229;SDS011;68663;49.122;17.544;2023-05-13T09:53:51;23.70;;;12.90;;
79229;SDS011;68663;49.122;17.544;2023-05-13T09:56:18;20.60;;;13.07;;
79229;SDS011;68663;49.122;17.544;2023-05-13T09:58:50;17.80;;;12.38;;
79229;SDS011;68663;49.122;17.544;2023-05-13T10:01:16;17.27;;;11.65;;
79229;SDS011;68663;49.122;17.544;2023-05-13T10:03:43;15.93;;;9.93;;
79229;SDS011;68663;49.122;17.544;2023-05-13T10:06:08;12.98;;;8.27;;
79229;SDS011;68663;49.122;17.544;2023-05-13T10:08:34;13.07;;;8.88;;
79229;SDS011;68663;49.122;17.544;2023-05-13T10:11:02;10.07;;;7.65;;
79229;SDS011;68663;49.122;17.544;2023-05-13T10:13:29;9.57;;;6.78;;
79229;SDS011;68663;49.122;17.544;2023-05-13T10:15:56;7.20;;;5.72;;
79229;SDS011;68663;49.122;17.544;2023-05-13T10:18:23;11.77;;;5.63;;
79229;SDS011;68663;49.122;17.544;2023-05-13T10:20:48;7.03;;;5.07;;
79229;SDS011;68663;49.122;17.544;2023-05-13T10:23:17;8.70;;;5.22;;
79229;SDS011;68663;49.122;17.544;2023-05-13T10:25:44;5.60;;;4.55;;
79229;SDS011;68663;49.122;17.544;2023-05-13T10:28:11;6.00;;;4.80;;
79229;SDS011;68663;49.122;17.544;2023-05-13T10:30:38;11.20;;;5.22;;
79229;SDS011;68663;49.122;17.544;2023-05-13T10:33:05;8.18;;;4.22;;
79229;SDS011;68663;49.122;17.544;2023-05-13T10:35:31;6.13;;;4.57;;
79229;SDS011;68663;49.122;17.544;2023-05-13T10:38:07;6.70;;;4.30;;
79229;SDS011;68663;49.122;17.544;2023-05-13T10:46:03;6.90;;;3.70;;
79229;SDS011;68663;49.122;17.544;2023-05-13T10:48:46;30.38;;;9.60;;
79229;SDS011;68663;49.122;17.544;2023-05-13T10:51:13;44.75;;;12.00;;
79229;SDS011;68663;49.122;17.544;2023-05-13T10:53:46;36.20;;;10.65;;
79229;SDS011;68663;49.122;17.544;2023-05-13T10:56:14;23.52;;;9.68;;
79229;SDS011;68663;49.122;17.544;2023-05-13T10:58:39;30.30;;;9.50;;
79229;SDS011;68663;49.122;17.544;2023-05-13T11:01:25;30.50;;;10.02;;
79229;SDS011;68663;49.122;17.544;2023-05-13T11:04:02;30.20;;;9.05;;
79229;SDS011;68663;49.122;17.544;2023-05-13T11:06:35;27.70;;;8.63;;
79229;SDS011;68663;49.122;17.544;2023-05-13T11:09:06;27.55;;;9.30;;
79229;SDS011;68663;49.122;17.544;2023-05-13T11:11:38;23.52;;;8.70;;
79229;SDS011;68663;49.122;17.544;2023-05-13T11:14:10;19.38;;;7.55;;
79229;SDS011;68663;49.122;17.544;2023-05-13T11:16:41;23.30;;;7.70;;
79229;SDS011;68663;49.122;17.544;2023-05-13T11:19:17;22.20;;;7.45;;
79229;SDS011;68663;49.122;17.544;2023-05-13T11:21:46;17.45;;;7.05;;
79229;SDS011;68663;49.122;17.544;2023-05-13T11:24:16;16.65;;;6.75;;
79229;SDS011;68663;49.122;17.544;2023-05-13T11:26:46;12.70;;;6.53;;
79229;SDS011;68663;49.122;17.544;2023-05-13T11:29:11;14.85;;;6.82;;
79229;SDS011;68663;49.122;17.544;2023-05-13T11:31:41;15.98;;;7.10;;
79229;SDS011;68663;49.122;17.544;2023-05-13T11:36:48;16.27;;;6.97;;
79229;SDS011;68663;49.122;17.544;2023-05-13T11:39:16;12.63;;;5.30;;
79229;SDS011;68663;49.122;17.544;2023-05-13T11:44:14;14.18;;;6.68;;
79229;SDS011;68663;49.122;17.544;2023-05-13T11:47:18;11.85;;;6.00;;
79229;SDS011;68663;49.122;17.544;2023-05-13T11:49:34;14.50;;;6.45;;
79229;SDS011;68663;49.122;17.544;2023-05-13T11:54:47;12.25;;;6.07;;
79229;SDS011;68663;49.122;17.544;2023-05-13T11:57:18;16.92;;;7.07;;
79229;SDS011;68663;49.122;17.544;2023-05-13T11:59:48;12.95;;;6.28;;
79229;SDS011;68663;49.122;17.544;2023-05-13T12:02:14;16.48;;;6.30;;
79229;SDS011;68663;49.122;17.544;2023-05-13T12:04:40;12.50;;;5.88;;
79229;SDS011;68663;49.122;17.544;2023-05-13T12:07:10;14.02;;;5.95;;
79229;SDS011;68663;49.122;17.544;2023-05-13T12:09:35;10.73;;;5.75;;
79229;SDS011;68663;49.122;17.544;2023-05-13T12:12:01;14.32;;;5.40;;
79229;SDS011;68663;49.122;17.544;2023-05-13T12:14:27;13.57;;;4.95;;
79229;SDS011;68663;49.122;17.544;2023-05-13T12:16:53;12.40;;;5.82;;
79229;SDS011;68663;49.122;17.544;2023-05-13T12:19:20;11.27;;;5.78;;
79229;SDS011;68663;49.122;17.544;2023-05-13T12:21:45;11.63;;;5.78;;
79229;SDS011;68663;49.122;17.544;2023-05-13T12:24:17;9.05;;;4.75;;
79229;SDS011;68663;49.122;17.544;2023-05-13T12:26:43;11.60;;;5.22;;
79229;SDS011;68663;49.122;17.544;2023-05-13T12:29:08;10.35;;;5.18;;
79229;SDS011;68663;49.122;17.544;2023-05-13T12:31:34;14.53;;;6.27;;
79229;SDS011;68663;49.122;17.544;2023-05-13T12:33:59;10.15;;;5.55;;
79229;SDS011;68663;49.122;17.544;2023-05-13T12:36:25;10.90;;;6.23;;
79229;SDS011;68663;49.122;17.544;2023-05-13T12:41:39;14.00;;;5.60;;
79229;SDS011;68663;49.122;17.544;2023-05-13T12:49:18;10.88;;;4.97;;
79229;SDS011;68663;49.122;17.544;2023-05-13T12:51:44;10.23;;;5.47;;
79229;SDS011;68663;49.122;17.544;2023-05-13T12:54:10;7.03;;;4.83;;
79229;SDS011;68663;49.122;17.544;2023-05-13T12:56:36;8.90;;;4.90;;
79229;SDS011;68663;49.122;17.544;2023-05-13T12:59:04;8.50;;;4.38;;
79229;SDS011;68663;49.122;17.544;2023-05-13T13:01:30;11.27;;;5.05;;
79229;SDS011;68663;49.122;17.544;2023-05-13T13:03:56;9.07;;;5.00;;
79229;SDS011;68663;49.122;17.544;2023-05-13T13:06:21;9.60;;;4.73;;
79229;SDS011;68663;49.122;17.544;2023-05-13T13:08:46;9.50;;;4.77;;
79229;SDS011;68663;49.122;17.544;2023-05-13T13:11:12;6.90;;;4.50;;
79229;SDS011;68663;49.122;17.544;2023-05-13T13:13:43;8.18;;;4.43;;
79229;SDS011;68663;49.122;17.544;2023-05-13T13:16:09;8.15;;;4.75;;
79229;SDS011;68663;49.122;17.544;2023-05-13T13:18:34;8.20;;;4.70;;
79229;SDS011;68663;49.122;17.544;2023-05-13T13:21:00;8.27;;;4.72;;
79229;SDS011;68663;49.122;17.544;2023-05-13T13:23:25;6.53;;;4.05;;
79229;SDS011;68663;49.122;17.544;2023-05-13T13:25:51;10.50;;;4.70;;
79229;SDS011;68663;49.122;17.544;2023-05-13T13:28:16;7.65;;;4.85;;
79229;SDS011;68663;49.122;17.544;2023-05-13T13:30:42;6.82;;;4.18;;
79229;SDS011;68663;49.122;17.544;2023-05-13T13:33:13;8.75;;;4.38;;
79229;SDS011;68663;49.122;17.544;2023-05-13T13:35:41;8.85;;;4.60;;
79229;SDS011;68663;49.122;17.544;2023-05-13T13:38:07;8.38;;;5.18;;
79229;SDS011;68663;49.122;17.544;2023-05-13T13:40:33;8.57;;;4.50;;
79229;SDS011;68663;49.122;17.544;2023-05-13T13:43:00;6.82;;;4.38;;
79229;SDS011;68663;49.122;17.544;2023-05-13T13:45:26;6.38;;;4.20;;
79229;SDS011;68663;49.122;17.544;2023-05-13T13:47:51;6.60;;;4.43;;
79229;SDS011;68663;49.122;17.544;2023-05-13T13:50:17;7.13;;;4.55;;
79229;SDS011;68663;49.122;17.544;2023-05-13T13:52:42;8.23;;;5.10;;
79229;SDS011;68663;49.122;17.544;2023-05-13T13:55:08;6.00;;;3.80;;
79229;SDS011;68663;49.122;17.544;2023-05-13T13:57:35;6.55;;;4.82;;
79229;SDS011;68663;49.122;17.544;2023-05-13T14:00:00;8.47;;;4.70;;
79229;SDS011;68663;49.122;17.544;2023-05-13T14:02:26;7.53;;;4.03;;
79229;SDS011;68663;49.122;17.544;2023-05-13T14:04:51;8.82;;;4.97;;
79229;SDS011;68663;49.122;17.544;2023-05-13T14:07:17;9.15;;;4.30;;
79229;SDS011;68663;49.122;17.544;2023-05-13T14:09:43;8.65;;;4.28;;
79229;SDS011;68663;49.122;17.544;2023-05-13T14:12:09;8.18;;;4.40;;
79229;SDS011;68663;49.122;17.544;2023-05-13T14:14:34;7.67;;;4.27;;
79229;SDS011;68663;49.122;17.544;2023-05-13T14:16:59;10.83;;;4.33;;
79229;SDS011;68663;49.122;17.544;2023-05-13T14:19:25;8.15;;;4.47;;
79229;SDS011;68663;49.122;17.544;2023-05-13T14:21:50;9.68;;;3.70;;
79229;SDS011;68663;49.122;17.544;2023-05-13T14:24:16;8.30;;;4.03;;
79229;SDS011;68663;49.122;17.544;2023-05-13T14:26:41;6.90;;;4.07;;
79229;SDS011;68663;49.122;17.544;2023-05-13T14:29:06;7.95;;;3.58;;
79229;SDS011;68663;49.122;17.544;2023-05-13T14:31:32;8.57;;;4.17;;
79229;SDS011;68663;49.122;17.544;2023-05-13T14:33:57;8.68;;;3.47;;
79229;SDS011;68663;49.122;17.544;2023-05-13T14:36:23;9.48;;;4.97;;
79229;SDS011;68663;49.122;17.544;2023-05-13T14:38:50;9.18;;;4.60;;
79229;SDS011;68663;49.122;17.544;2023-05-13T14:41:16;8.52;;;4.82;;
79229;SDS011;68663;49.122;17.544;2023-05-13T14:43:44;8.80;;;4.63;;
79229;SDS011;68663;49.122;17.544;2023-05-13T14:46:13;10.57;;;4.88;;
79229;SDS011;68663;49.122;17.544;2023-05-13T14:48:38;10.35;;;4.45;;
79229;SDS011;68663;49.122;17.544;2023-05-13T14:51:04;9.18;;;4.57;;
79229;SDS011;68663;49.122;17.544;2023-05-13T14:53:29;8.52;;;5.35;;
79229;SDS011;68663;49.122;17.544;2023-05-13T14:55:55;8.68;;;5.45;;
79229;SDS011;68663;49.122;17.544;2023-05-13T14:58:20;9.15;;;5.18;;
79229;SDS011;68663;49.122;17.544;2023-05-13T15:00:46;8.98;;;6.18;;
79229;SDS011;68663;49.122;17.544;2023-05-13T15:03:12;11.30;;;5.40;;